Time;durP1;ratioP1;P1;durP2;ratioP2;P2;SDS_P1;SDS_P2;PMS_P1;PMS_P2;Temp;Humidity;BMP_temperature;BMP_pressure;BME280_temperature;BME280_humidity;BME280_pressure;Samples;Min_cycle;Max_cycle;Signal;HPM_P1;HPM_P2
2024/01/05 00:00:23;;;;;;;7.68;1.92;;;12.30;99.90;;;;;;7383664;19;20014;-78
2024/01/05 00:02:54;;;;;;;14.73;1.92;;;12.30;99.90;;;;;;7382110;19;20015;-78
2024/01/05 00:05:25;;;;;;;12.82;2.00;;;12.40;99.90;;;;;;7382624;19;20031;-78
2024/01/05 00:07:53;;;;;;;5.28;1.38;;;12.50;99.90;;;;;;7401696;19;20089;-78
2024/01/05 00:10:22;;;;;;;10.23;2.03;;;12.30;99.90;;;;;;7383788;19;20013;-79
2024/01/05 00:12:53;;;;;;;15.10;2.20;;;12.40;99.90;;;;;;7392601;19;20006;-79
2024/01/05 00:15:22;;;;;;;13.30;1.98;;;12.30;99.90;;;;;;7391912;19;20007;-79
2024/01/05 00:17:51;;;;;;;6.53;1.88;;;12.30;99.90;;;;;;7393649;19;20223;-78
2024/01/05 00:20:20;;;;;;;7.55;2.10;;;12.40;99.90;;;;;;7392990;19;20003;-79
2024/01/05 00:22:49;;;;;;;7.72;1.35;;;12.40;99.90;;;;;;7409588;19;20021;-80
2024/01/05 00:25:21;;;;;;;14.15;1.98;;;12.10;99.90;;;;;;7383362;19;20235;-79
2024/01/05 00:27:50;;;;;;;10.50;1.40;;;12.20;99.90;;;;;;7382500;19;20011;-78
2024/01/05 00:30:21;;;;;;;13.00;1.85;;;12.30;99.90;;;;;;7383664;19;20042;-77
2024/01/05 00:32:50;;;;;;;;;;;12.30;99.90;;;;;;7384747;19;20283;-78
2024/01/05 00:35:18;;;;;;;12.80;2.28;;;12.40;99.90;;;;;;7405999;19;19935;-79
2024/01/05 00:37:47;;;;;;;15.65;2.00;;;12.40;99.90;;;;;;7384467;19;19998;-78
2024/01/05 00:40:16;;;;;;;6.70;1.45;;;12.50;99.90;;;;;;7384033;19;20302;-79
2024/01/05 00:42:45;;;;;;;12.02;1.83;;;12.50;99.90;;;;;;7383683;19;20011;-79
2024/01/05 00:45:14;;;;;;;9.80;1.45;;;12.30;99.90;;;;;;7384047;19;20765;-78
2024/01/05 00:47:45;;;;;;;9.85;1.92;;;12.40;99.90;;;;;;7382781;19;20047;-79
2024/01/05 00:50:14;;;;;;;5.75;1.40;;;12.50;99.90;;;;;;7403316;19;19999;-79
2024/01/05 00:52:43;;;;;;;7.75;1.75;;;12.40;99.90;;;;;;7382347;19;20015;-78
2024/01/05 00:55:11;;;;;;;17.38;1.85;;;12.30;99.90;;;;;;7382848;19;20013;-78
2024/01/05 00:57:40;;;;;;;9.40;1.80;;;12.50;99.90;;;;;;7383037;19;20014;-79
2024/01/05 01:00:11;;;;;;;8.75;1.63;;;12.20;99.90;;;;;;7382800;19;20018;-78
2024/01/05 01:02:41;;;;;;;7.28;1.40;;;12.30;99.90;;;;;;7383047;19;20007;-78
2024/01/05 01:05:13;;;;;;;5.25;1.70;;;12.40;99.90;;;;;;7404576;19;20059;-80
2024/01/05 01:07:42;;;;;;;15.52;1.92;;;12.40;99.90;;;;;;7382377;19;20007;-79
2024/01/05 01:10:11;;;;;;;3.60;1.20;;;12.30;99.90;;;;;;7383407;19;20020;-78
2024/01/05 01:12:40;;;;;;;11.90;1.50;;;12.20;99.90;;;;;;7382267;19;20031;-78
2024/01/05 01:15:09;;;;;;;9.35;1.23;;;12.00;99.90;;;;;;7382466;19;20003;-79
2024/01/05 01:17:38;;;;;;;4.43;1.23;;;12.10;99.90;;;;;;7383630;19;20554;-78
2024/01/05 01:20:08;;;;;;;8.05;1.10;;;11.90;99.90;;;;;;7406099;19;20003;-79
2024/01/05 01:22:40;;;;;;;3.25;0.82;;;11.90;99.90;;;;;;7382929;19;20019;-78
2024/01/05 01:25:09;;;;;;;1.63;0.80;;;11.90;99.90;;;;;;7384111;19;20007;-78
2024/01/05 01:27:38;;;;;;;0.65;0.40;;;11.80;99.90;;;;;;7385304;19;20031;-79
2024/01/05 01:30:08;;;;;;;7.00;0.95;;;11.80;99.90;;;;;;7383399;19;20014;-79
2024/01/05 01:32:37;;;;;;;0.70;0.40;;;11.60;99.90;;;;;;7383662;19;20007;-78
2024/01/05 01:35:06;;;;;;;1.27;0.47;;;11.40;99.90;;;;;;7405075;19;20322;-79
2024/01/05 01:37:35;;;;;;;1.60;0.65;;;11.60;99.90;;;;;;7384028;19;20020;-78
2024/01/05 01:40:08;;;;;;;2.63;0.60;;;11.50;99.90;;;;;;7384306;19;20002;-78
2024/01/05 01:42:37;;;;;;;1.10;0.60;;;11.70;99.90;;;;;;7384457;19;20007;-78
2024/01/05 01:45:07;;;;;;;1.55;0.47;;;11.70;99.90;;;;;;7383482;19;20003;-79
2024/01/05 01:47:37;;;;;;;1.55;0.50;;;11.80;99.90;;;;;;7382748;19;20010;-79
2024/01/05 01:50:07;;;;;;;0.80;0.40;;;11.90;99.90;;;;;;7405004;19;20288;-78
2024/01/05 01:52:38;;;;;;;0.85;0.47;;;11.90;99.90;;;;;;7383249;19;20014;-79
2024/01/05 01:55:12;;;;;;;2.92;0.50;;;12.00;99.90;;;;;;7383247;19;20003;-79
2024/01/05 01:57:41;;;;;;;2.33;0.70;;;11.90;99.90;;;;;;7383420;19;20011;-77
2024/01/05 02:00:11;;;;;;;1.30;0.52;;;12.00;99.90;;;;;;7383799;19;20393;-79
2024/01/05 02:02:40;;;;;;;1.30;0.50;;;12.00;99.90;;;;;;7383133;19;20408;-78
2024/01/05 02:05:10;;;;;;;0.45;0.35;;;11.90;99.90;;;;;;7408812;19;20002;-78
2024/01/05 02:07:39;;;;;;;4.70;0.55;;;11.90;99.90;;;;;;7380822;19;20011;-79
2024/01/05 02:10:11;;;;;;;1.42;0.40;;;12.00;99.90;;;;;;7380580;19;20023;-79
2024/01/05 02:12:40;;;;;;;0.70;0.50;;;12.10;99.90;;;;;;7383244;19;20300;-79
2024/01/05 02:15:10;;;;;;;5.45;0.65;;;12.20;99.90;;;;;;7386760;19;20062;-79
2024/01/05 02:17:38;;;;;;;1.52;0.60;;;12.10;99.90;;;;;;7387749;19;20058;-80
2024/01/05 02:20:09;;;;;;;1.48;0.75;;;11.90;99.90;;;;;;7405162;19;20014;-79
2024/01/05 02:22:40;;;;;;;0.65;0.38;;;11.70;99.90;;;;;;7385029;19;20019;-77
2024/01/05 02:25:12;;;;;;;2.33;0.60;;;11.70;99.90;;;;;;7390979;19;20015;-79
2024/01/05 02:27:41;;;;;;;1.90;0.60;;;11.90;99.90;;;;;;7391319;19;20054;-78
2024/01/05 02:30:11;;;;;;;2.10;0.68;;;12.00;99.90;;;;;;7391832;19;20019;-79
2024/01/05 02:32:40;;;;;;;6.28;0.77;;;12.10;99.90;;;;;;7392149;19;20039;-77
2024/01/05 02:35:09;;;;;;;1.05;0.38;;;12.00;99.90;;;;;;7407928;19;20010;-78
2024/01/05 02:37:43;;;;;;;3.85;0.60;;;12.00;99.90;;;;;;7385966;19;19998;-79
2024/01/05 02:40:15;;;;;;;2.33;0.60;;;12.10;99.90;;;;;;7387696;19;20074;-79
2024/01/05 02:42:43;;;;;;;1.67;0.73;;;12.10;99.90;;;;;;7386422;19;20018;-78
2024/01/05 02:45:12;;;;;;;0.98;0.50;;;12.10;99.90;;;;;;7384392;19;20006;-78
2024/01/05 02:47:41;;;;;;;2.10;0.60;;;12.10;99.90;;;;;;7385460;19;20035;-78
2024/01/05 02:50:11;;;;;;;4.40;0.43;;;11.80;99.90;;;;;;7406700;19;20023;-77
2024/01/05 02:52:40;;;;;;;0.82;0.55;;;11.70;99.90;;;;;;7386830;19;20002;-78
2024/01/05 02:55:10;;;;;;;1.40;0.45;;;11.80;99.90;;;;;;7390641;19;20003;-78
2024/01/05 02:57:42;;;;;;;0.85;0.52;;;11.90;99.90;;;;;;7391247;19;20002;-78
2024/01/05 03:00:11;;;;;;;2.97;0.55;;;12.00;99.90;;;;;;7387636;19;20011;-79
2024/01/05 03:02:40;;;;;;;2.67;0.40;;;11.90;99.90;;;;;;7387253;19;20007;-78
2024/01/05 03:05:09;;;;;;;4.70;0.40;;;11.90;99.90;;;;;;7409873;19;20382;-77
2024/01/05 03:07:40;;;;;;;2.58;0.47;;;11.80;99.90;;;;;;7387540;19;19999;-79
2024/01/05 03:10:10;;;;;;;0.80;0.43;;;11.60;99.90;;;;;;7386929;19;20038;-78
2024/01/05 03:12:41;;;;;;;4.88;0.50;;;11.80;99.90;;;;;;7385624;19;20051;-79
2024/01/05 03:15:13;;;;;;;1.60;0.60;;;11.80;99.90;;;;;;7385326;19;20003;-79
2024/01/05 03:17:41;;;;;;;3.22;0.52;;;11.80;99.90;;;;;;7386000;19;20011;-78
2024/01/05 03:20:12;;;;;;;5.07;0.70;;;12.00;99.90;;;;;;7404497;19;20021;-78
2024/01/05 03:22:41;;;;;;;0.98;0.43;;;11.90;99.90;;;;;;7385934;19;20003;-79
2024/01/05 03:25:10;;;;;;;1.90;0.47;;;12.00;99.90;;;;;;7383360;19;20114;-79
2024/01/05 03:27:41;;;;;;;2.03;0.50;;;12.00;99.90;;;;;;7384555;19;20007;-78
2024/01/05 03:30:10;;;;;;;1.33;0.60;;;12.00;99.90;;;;;;7387532;19;20393;-78
2024/01/05 03:32:42;;;;;;;6.78;0.80;;;12.00;99.90;;;;;;7384268;19;20010;-77
2024/01/05 03:35:11;;;;;;;3.58;0.85;;;12.00;99.90;;;;;;7407910;19;20006;-79
2024/01/05 03:37:39;;;;;;;2.58;0.77;;;12.10;99.90;;;;;;7386097;19;20007;-78
2024/01/05 03:40:10;;;;;;;0.32;0.25;;;12.10;99.90;;;;;;7388100;19;20003;-79
2024/01/05 03:42:41;;;;;;;2.47;0.63;;;12.20;99.90;;;;;;7390318;19;20014;-78
2024/01/05 03:45:11;;;;;;;1.80;0.50;;;12.20;99.90;;;;;;7389983;19;20011;-78
2024/01/05 03:47:39;;;;;;;8.32;0.73;;;12.10;99.90;;;;;;7388929;19;20010;-78
2024/01/05 03:50:09;;;;;;;4.78;0.70;;;12.10;99.90;;;;;;7410746;19;20019;-79
2024/01/05 03:52:38;;;;;;;1.10;0.60;;;12.20;99.90;;;;;;7389994;19;20003;-79
2024/01/05 03:55:07;;;;;;;1.15;0.45;;;12.10;99.90;;;;;;7388756;19;20291;-78
2024/01/05 03:57:36;;;;;;;2.28;0.50;;;12.20;99.90;;;;;;7387564;19;20007;-79
2024/01/05 04:00:09;;;;;;;10.57;0.57;;;12.00;99.90;;;;;;7385793;19;20021;-79
2024/01/05 04:02:38;;;;;;;5.05;0.50;;;12.00;99.90;;;;;;7410016;19;20348;-78
2024/01/05 04:05:08;;;;;;;3.83;0.70;;;11.80;99.90;;;;;;7389287;19;20006;-79
2024/01/05 04:07:39;;;;;;;5.70;0.93;;;11.90;99.90;;;;;;7385176;19;20042;-78
2024/01/05 04:10:09;;;;;;;2.90;0.60;;;11.80;99.90;;;;;;7385083;19;20381;-78
2024/01/05 04:12:38;;;;;;;2.15;0.60;;;11.80;99.90;;;;;;7385561;19;20007;-78
2024/01/05 04:15:11;;;;;;;2.90;0.70;;;11.80;99.90;;;;;;7383313;19;19999;-78
2024/01/05 04:17:39;;;;;;;3.95;0.75;;;11.70;99.90;;;;;;7393379;19;20062;-78
2024/01/05 04:20:09;;;;;;;1.55;0.50;;;11.80;99.90;;;;;;7406463;19;20011;-78
2024/01/05 04:22:38;;;;;;;1.15;0.52;;;11.70;99.90;;;;;;7385156;19;20054;-78
2024/01/05 04:25:07;;;;;;;3.22;0.60;;;11.80;99.90;;;;;;7382948;19;20027;-79
2024/01/05 04:27:36;;;;;;;2.80;0.60;;;11.80;99.90;;;;;;7383733;19;19998;-78
2024/01/05 04:30:07;;;;;;;2.15;0.63;;;11.80;99.90;;;;;;7386919;19;20036;-79
2024/01/05 04:32:42;;;;;;;1.88;0.63;;;11.80;99.90;;;;;;7410115;19;20010;-78
2024/01/05 04:35:11;;;;;;;2.47;0.52;;;11.80;99.90;;;;;;7397760;19;20011;-78
2024/01/05 04:37:40;;;;;;;2.92;0.77;;;11.70;99.90;;;;;;7397561;19;20006;-79
2024/01/05 04:40:10;;;;;;;2.83;0.90;;;11.70;99.90;;;;;;7400690;19;20039;-79
2024/01/05 04:42:39;;;;;;;4.40;0.60;;;11.70;99.90;;;;;;7399839;19;20007;-79
2024/01/05 04:45:10;;;;;;;6.63;1.27;;;11.70;99.90;;;;;;7392312;19;20009;-78
2024/01/05 04:47:42;;;;;;;3.78;0.80;;;11.70;99.90;;;;;;7413699;19;20018;-78
2024/01/05 04:50:11;;;;;;;0.95;0.50;;;11.60;99.90;;;;;;7387981;19;20058;-78
2024/01/05 04:52:40;;;;;;;6.10;0.75;;;11.60;99.90;;;;;;7383397;19;20019;-79
2024/01/05 04:55:09;;;;;;;6.18;0.93;;;11.50;99.90;;;;;;7383549;19;20170;-79
2024/01/05 04:57:35;;;;;;;5.95;0.50;;;11.40;99.90;;;;;;7382925;19;20010;-80
2024/01/05 05:00:05;;;;;;;2.15;0.70;;;11.50;99.90;;;;;;7383380;19;20000;-78
2024/01/05 05:02:33;;;;;;;2.90;0.80;;;11.50;99.90;;;;;;7403305;19;20014;-79
2024/01/05 05:05:05;;;;;;;3.20;0.80;;;11.50;99.90;;;;;;7382903;19;20062;-78
2024/01/05 05:07:33;;;;;;;;;;;11.50;99.90;;;;;;7383216;19;20003;-78
2024/01/05 05:10:02;;;;;;;5.13;0.88;;;11.50;99.90;;;;;;7384005;19;20231;-78
2024/01/05 05:12:35;;;;;;;6.25;0.60;;;11.50;99.90;;;;;;7384169;19;20074;-78
2024/01/05 05:15:10;;;;;;;4.88;0.70;;;11.50;99.90;;;;;;7387322;19;20174;-79
2024/01/05 05:17:39;;;;;;;5.00;0.88;;;11.50;99.90;;;;;;7405994;19;20085;-78
2024/01/05 05:20:11;;;;;;;4.72;0.80;;;11.50;99.90;;;;;;7383188;19;20354;-78
2024/01/05 05:22:40;;;;;;;1.33;0.60;;;11.50;99.90;;;;;;7384340;19;20014;-79
2024/01/05 05:25:09;;;;;;;2.28;0.60;;;11.50;99.90;;;;;;7384137;19;20074;-78
2024/01/05 05:27:38;;;;;;;0.85;0.40;;;11.30;99.90;;;;;;7382553;19;20023;-78
2024/01/05 05:30:09;;;;;;;5.07;0.60;;;11.30;99.90;;;;;;7383792;19;20382;-77
2024/01/05 05:32:38;;;;;;;6.40;0.93;;;11.30;99.90;;;;;;7400816;19;20263;-77
2024/01/05 05:35:10;;;;;;;2.30;0.40;;;11.20;99.90;;;;;;7379068;19;20009;-77
2024/01/05 05:37:39;;;;;;;10.30;0.82;;;11.30;99.90;;;;;;7379245;19;20003;-78
2024/01/05 05:40:09;;;;;;;1.35;0.55;;;11.30;99.90;;;;;;7380305;19;20024;-77
2024/01/05 05:42:38;;;;;;;5.05;0.52;;;11.30;99.90;;;;;;7379647;19;20024;-77
2024/01/05 05:45:07;;;;;;;1.80;0.85;;;11.30;99.90;;;;;;7379389;19;19988;-78
2024/01/05 05:47:36;;;;;;;5.45;1.00;;;11.30;99.90;;;;;;7401607;19;20011;-78
2024/01/05 05:50:06;;;;;;;1.92;0.88;;;11.30;99.90;;;;;;7389156;19;20007;-78
2024/01/05 05:52:38;;;;;;;1.25;0.70;;;11.30;99.90;;;;;;7388081;19;20017;-78
2024/01/05 05:55:10;;;;;;;0.88;0.70;;;11.30;99.90;;;;;;7390761;19;20003;-76
2024/01/05 05:57:39;;;;;;;3.05;0.85;;;11.30;99.90;;;;;;7388251;19;20013;-78
2024/01/05 06:00:10;;;;;;;4.32;0.75;;;11.20;99.90;;;;;;7388972;19;20029;-78
2024/01/05 06:02:39;;;;;;;1.52;0.60;;;11.30;99.90;;;;;;7409157;19;20011;-78
2024/01/05 06:05:09;;;;;;;6.15;1.27;;;11.20;99.90;;;;;;7387139;19;20010;-78
2024/01/05 06:07:40;;;;;;;5.07;1.00;;;11.20;99.90;;;;;;7388615;19;20280;-78
2024/01/05 06:10:10;;;;;;;1.30;0.85;;;11.20;99.90;;;;;;7388409;19;20027;-78
2024/01/05 06:12:40;;;;;;;6.57;1.08;;;11.20;99.90;;;;;;7387921;19;20582;-78
2024/01/05 06:15:10;;;;;;;1.73;0.82;;;11.20;99.90;;;;;;7391634;19;20010;-79
2024/01/05 06:17:39;;;;;;;1.88;0.90;;;11.20;99.90;;;;;;7413758;19;20345;-79
2024/01/05 06:20:09;;;;;;;6.38;0.80;;;11.20;99.90;;;;;;7394335;19;20017;-79
2024/01/05 06:22:40;;;;;;;5.95;1.40;;;11.20;99.90;;;;;;7391916;19;20020;-79
2024/01/05 06:25:09;;;;;;;2.20;0.80;;;11.10;99.90;;;;;;7391253;19;20003;-79
2024/01/05 06:27:38;;;;;;;1.95;0.75;;;11.10;99.90;;;;;;7392663;19;20003;-79
2024/01/05 06:30:08;;;;;;;4.03;1.10;;;11.00;99.90;;;;;;7392315;19;19999;-79
2024/01/05 06:32:39;;;;;;;2.78;1.02;;;11.00;99.90;;;;;;7414307;19;20010;-79
2024/01/05 06:35:08;;;;;;;5.83;1.70;;;11.00;99.90;;;;;;7391186;19;20068;-78
2024/01/05 06:37:40;;;;;;;3.25;1.05;;;11.00;99.90;;;;;;7394265;19;20155;-78
2024/01/05 06:40:10;;;;;;;3.63;1.00;;;11.00;99.90;;;;;;7390354;19;20003;-78
2024/01/05 06:42:39;;;;;;;4.22;1.02;;;11.10;99.90;;;;;;7388748;19;19998;-76
2024/01/05 06:45:07;;;;;;;3.40;1.05;;;11.10;99.90;;;;;;7394462;19;20011;-77
2024/01/05 06:47:35;;;;;;;2.50;1.00;;;11.10;99.90;;;;;;7415183;19;20425;-76
2024/01/05 06:50:05;;;;;;;14.05;1.27;;;11.00;99.90;;;;;;7390212;19;20019;-75
2024/01/05 06:52:34;;;;;;;2.78;1.10;;;10.90;99.90;;;;;;7398212;19;20017;-78
2024/01/05 06:55:05;;;;;;;2.88;1.02;;;10.90;99.90;;;;;;7388577;19;20008;-74
2024/01/05 06:57:35;;;;;;;3.53;1.25;;;10.90;99.90;;;;;;7383762;19;20029;-77
2024/01/05 07:00:05;;;;;;;7.80;1.13;;;10.90;99.90;;;;;;7383751;19;20007;-76
2024/01/05 07:02:33;;;;;;;1.60;0.80;;;10.90;99.90;;;;;;7406655;19;20026;-76
2024/01/05 07:05:03;;;;;;;2.92;1.10;;;10.90;99.90;;;;;;7384769;19;20052;-76
2024/01/05 07:07:31;;;;;;;2.88;1.10;;;10.90;99.90;;;;;;7383314;19;20038;-76
2024/01/05 07:10:00;;;;;;;5.80;1.73;;;10.90;99.90;;;;;;7382458;19;20074;-77
2024/01/05 07:12:32;;;;;;;9.75;1.35;;;11.00;99.90;;;;;;7384026;19;20011;-77
2024/01/05 07:15:01;;;;;;;3.72;1.08;;;10.90;99.90;;;;;;7384771;19;20019;-77
2024/01/05 07:17:32;;;;;;;8.30;1.42;;;10.90;99.90;;;;;;7407283;19;20011;-78
2024/01/05 07:20:01;;;;;;;3.10;1.00;;;10.90;99.90;;;;;;7387152;19;20006;-78
2024/01/05 07:22:32;;;;;;;0.95;0.75;;;10.90;99.90;;;;;;7384298;19;20087;-79
2024/01/05 07:25:01;;;;;;;4.05;1.38;;;10.80;99.90;;;;;;7385789;19;20006;-77
2024/01/05 07:27:32;;;;;;;4.78;1.33;;;10.70;99.90;;;;;;7385508;19;20010;-76
2024/01/05 07:30:04;;;;;;;6.72;1.75;;;10.60;99.90;;;;;;7387580;19;20011;-80
2024/01/05 07:32:35;;;;;;;8.20;1.42;;;10.70;99.90;;;;;;7405793;19;20010;-77
2024/01/05 07:35:04;;;;;;;3.97;1.30;;;10.70;99.90;;;;;;7381356;19;20340;-76
2024/01/05 07:37:33;;;;;;;4.85;1.52;;;10.70;99.90;;;;;;7382628;19;20643;-76
2024/01/05 07:40:02;;;;;;;6.47;1.42;;;10.70;99.90;;;;;;7382526;19;20013;-77
2024/01/05 07:42:33;;;;;;;5.75;1.52;;;10.80;99.90;;;;;;7385085;19;20006;-76
2024/01/05 07:45:04;;;;;;;5.63;1.73;;;10.70;99.90;;;;;;7382871;19;20015;-74
2024/01/05 07:47:33;;;;;;;3.03;1.30;;;10.70;99.90;;;;;;7402477;19;20024;-76
2024/01/05 07:50:01;;;;;;;9.20;1.48;;;10.70;99.90;;;;;;7382627;19;20006;-75
2024/01/05 07:52:31;;;;;;;7.50;1.40;;;10.80;99.90;;;;;;7381277;19;20011;-76
2024/01/05 07:55:00;;;;;;;3.60;1.20;;;10.80;99.90;;;;;;7381545;19;20017;-76
2024/01/05 07:57:28;;;;;;;2.75;1.45;;;10.60;99.90;;;;;;7383219;19;19999;-75
2024/01/05 08:00:00;;;;;;;5.65;1.27;;;10.70;99.90;;;;;;7403700;19;20082;-75
2024/01/05 08:02:28;;;;;;;2.45;1.38;;;10.80;99.90;;;;;;7383730;19;20360;-76
2024/01/05 08:04:57;;;;;;;8.95;1.70;;;10.80;99.90;;;;;;7379271;19;20039;-75
2024/01/05 08:07:26;;;;;;;5.28;1.75;;;10.90;99.90;;;;;;7380334;19;20373;-75
2024/01/05 08:09:54;;;;;;;6.80;1.63;;;10.90;99.90;;;;;;7378802;19;20066;-75
2024/01/05 08:12:21;;;;;;;8.50;2.28;;;10.80;99.90;;;;;;7382519;19;20079;-77
2024/01/05 08:14:49;;;;;;;15.52;2.67;;;10.80;99.90;;;;;;7402530;19;20014;-77
2024/01/05 08:17:20;;;;;;;1.67;1.33;;;10.70;99.90;;;;;;7379166;19;20007;-78
2024/01/05 08:19:50;;;;;;;7.60;1.85;;;10.70;99.90;;;;;;7381461;19;20014;-78
2024/01/05 08:22:19;;;;;;;12.25;1.77;;;10.70;99.90;;;;;;7384833;19;20003;-77
2024/01/05 08:24:47;;;;;;;9.85;1.80;;;10.80;99.90;;;;;;7383768;19;20122;-77
2024/01/05 08:27:16;;;;;;;5.63;2.00;;;10.80;99.90;;;;;;7381640;19;20659;-76
2024/01/05 08:29:44;;;;;;;6.18;2.05;;;10.80;99.90;;;;;;7402918;19;20015;-76
2024/01/05 08:32:15;;;;;;;4.75;1.80;;;10.80;99.90;;;;;;7381124;19;20078;-76
2024/01/05 08:34:47;;;;;;;6.60;3.15;;;10.80;99.90;;;;;;7379012;19;20305;-77
2024/01/05 08:37:15;;;;;;;12.55;2.08;;;10.90;99.90;;;;;;7380659;19;20437;-75
2024/01/05 08:39:44;;;;;;;2.45;1.50;;;10.90;99.90;;;;;;7380561;19;20062;-77
2024/01/05 08:42:13;;;;;;;9.23;3.50;;;10.90;99.90;;;;;;7382624;19;20003;-75
2024/01/05 08:44:42;;;;;;;17.35;4.43;;;10.90;99.90;;;;;;7403339;19;20010;-74
2024/01/05 08:47:11;;;;;;;4.55;2.70;;;10.90;99.90;;;;;;7379725;19;20058;-75
2024/01/05 08:49:40;;;;;;;6.05;2.53;;;11.00;99.90;;;;;;7378167;19;20006;-76
2024/01/05 08:52:14;;;;;;;8.02;2.13;;;11.00;99.90;;;;;;7379270;19;20014;-75
2024/01/05 08:54:42;;;;;;;9.73;2.50;;;11.10;99.90;;;;;;7377892;19;20007;-74
2024/01/05 08:57:11;;;;;;;10.13;2.05;;;11.00;99.90;;;;;;7383529;19;20070;-73
2024/01/05 08:59:40;;;;;;;6.13;2.30;;;10.90;99.90;;;;;;7403290;19;20436;-75
2024/01/05 09:02:09;;;;;;;6.32;1.98;;;10.90;99.90;;;;;;7384912;19;20011;-74
2024/01/05 09:04:40;;;;;;;8.45;2.08;;;10.90;99.90;;;;;;7386610;19;20006;-75
2024/01/05 09:07:11;;;;;;;12.38;2.13;;;10.90;99.90;;;;;;7387048;19;20006;-77
2024/01/05 09:09:43;;;;;;;13.65;2.47;;;11.00;99.90;;;;;;7379742;19;20006;-79
2024/01/05 09:12:12;;;;;;;11.73;2.58;;;11.10;99.90;;;;;;7383023;19;20031;-77
2024/01/05 09:14:41;;;;;;;8.07;2.13;;;11.10;99.90;;;;;;7403901;19;20370;-77
2024/01/05 09:17:10;;;;;;;6.55;1.80;;;11.20;99.90;;;;;;7381061;19;20058;-78
2024/01/05 09:22:41;;;;;;;7.03;2.25;;;11.20;99.90;;;;;;7380362;19;20023;-77
2024/01/05 09:25:10;;;;;;;3.40;1.90;;;11.20;99.90;;;;;;7378054;19;20013;-76
2024/01/05 09:27:39;;;;;;;6.90;1.77;;;11.20;99.90;;;;;;7380728;19;20078;-76
2024/01/05 09:30:09;;;;;;;8.57;3.80;;;11.30;99.90;;;;;;7400152;19;20075;-75
2024/01/05 09:32:38;;;;;;;10.77;2.95;;;11.30;99.90;;;;;;7401060;19;20295;-76
2024/01/05 09:35:08;;;;;;;13.52;3.17;;;11.20;99.90;;;;;;7377976;19;20401;-77
2024/01/05 09:37:40;;;;;;;9.77;2.80;;;11.30;99.90;;;;;;7378959;19;20023;-76
2024/01/05 09:40:11;;;;;;;;;;;11.30;99.90;;;;;;7379887;19;20427;-74
2024/01/05 09:42:42;;;;;;;7.30;2.10;;;11.40;99.90;;;;;;7379575;19;19910;-75
2024/01/05 09:45:14;;;;;;;4.50;1.92;;;11.40;99.90;;;;;;7380047;19;20090;-75
2024/01/05 09:47:45;;;;;;;6.50;1.80;;;11.30;99.90;;;;;;7401232;19;20006;-74
2024/01/05 09:50:16;;;;;;;2.75;1.85;;;11.30;99.90;;;;;;7376233;19;20002;-75
2024/01/05 09:52:48;;;;;;;3.50;1.80;;;11.40;99.90;;;;;;7376266;19;20377;-76
2024/01/05 09:55:17;;;;;;;4.50;1.95;;;11.30;99.90;;;;;;7377573;19;20011;-77
2024/01/05 09:57:47;;;;;;;8.95;1.88;;;11.30;99.90;;;;;;7377830;19;20009;-76
2024/01/05 10:00:18;;;;;;;3.88;1.92;;;11.30;99.90;;;;;;7377279;19;20007;-75
2024/01/05 10:02:53;;;;;;;13.45;1.95;;;11.20;99.90;;;;;;7401125;19;20007;-76
2024/01/05 10:05:22;;;;;;;7.68;1.55;;;11.30;99.90;;;;;;7378110;19;20688;-77
2024/01/05 10:07:53;;;;;;;4.35;1.70;;;11.40;99.90;;;;;;7377445;19;20032;-75
2024/01/05 10:10:22;;;;;;;11.50;1.80;;;11.30;99.90;;;;;;7378473;19;20103;-75
2024/01/05 10:12:50;;;;;;;14.25;2.00;;;11.40;99.90;;;;;;7376736;19;20023;-76
2024/01/05 10:15:19;;;;;;;3.22;1.30;;;11.40;99.90;;;;;;7374532;19;20010;-76
2024/01/05 10:17:49;;;;;;;5.35;1.90;;;11.40;99.90;;;;;;7399009;19;20256;-77
2024/01/05 10:20:21;;;;;;;11.68;1.50;;;11.30;99.90;;;;;;7375382;19;20003;-77
2024/01/05 10:22:53;;;;;;;9.55;1.95;;;11.10;99.90;;;;;;7376893;19;20014;-76
2024/01/05 10:25:22;;;;;;;;;;;11.00;99.90;;;;;;7378637;19;20361;-75
2024/01/05 10:27:51;;;;;;;6.53;1.60;;;11.20;99.90;;;;;;7377482;19;19924;-76
2024/01/05 10:30:31;;;;;;;5.85;1.60;;;11.10;99.90;;;;;;7373653;19;20028;-77
2024/01/05 10:33:08;;;;;;;11.70;1.73;;;11.10;99.90;;;;;;7398932;19;20296;-76
2024/01/05 10:35:37;;;;;;;9.48;1.77;;;11.10;99.90;;;;;;7384061;19;20024;-77
2024/01/05 10:38:11;;;;;;;6.13;1.88;;;11.20;99.90;;;;;;7384665;19;20754;-76
2024/01/05 10:40:40;;;;;;;8.60;1.80;;;11.00;99.90;;;;;;7385086;19;20069;-76
2024/01/05 10:43:13;;;;;;;3.38;1.40;;;11.10;99.90;;;;;;7384652;19;20067;-77
2024/01/05 10:45:45;;;;;;;7.18;1.85;;;11.10;99.90;;;;;;7383685;19;20115;-77
2024/01/05 10:48:16;;;;;;;11.02;1.80;;;11.20;99.90;;;;;;7382993;19;20018;-77
2024/01/05 10:50:47;;;;;;;5.03;1.87;;;11.30;99.90;;;;;;7406344;19;20011;-75
2024/01/05 10:53:20;;;;;;;7.78;1.50;;;11.20;99.90;;;;;;7383188;19;20011;-76
2024/01/05 10:55:50;;;;;;;6.20;2.08;;;11.30;99.90;;;;;;7384347;19;20007;-76
2024/01/05 10:58:19;;;;;;;14.83;1.23;;;11.40;99.90;;;;;;7382563;19;20115;-76
2024/01/05 11:00:48;;;;;;;8.90;1.70;;;11.40;99.90;;;;;;7381777;19;22222;-77
2024/01/05 11:03:20;;;;;;;6.30;1.58;;;11.20;99.90;;;;;;7384440;19;20010;-77
2024/01/05 11:05:49;;;;;;;5.93;1.05;;;11.00;99.90;;;;;;7404936;19;20074;-76
2024/01/05 11:08:36;;;;;;;4.47;1.30;;;11.10;99.90;;;;;;7382321;19;20078;-77
2024/01/05 11:11:14;;;;;;;6.40;1.52;;;11.20;99.90;;;;;;7384616;19;20070;-79
2024/01/05 11:13:58;;;;;;;6.68;1.90;;;10.80;99.90;;;;;;7403697;19;20462;-78
2024/01/05 11:16:54;;;;;;;7.97;1.50;;;10.90;99.90;;;;;;7397176;19;20007;-77
2024/01/05 11:19:46;;;;;;;10.57;1.45;;;11.30;99.90;;;;;;7394257;19;20047;-77
2024/01/05 11:22:16;;;;;;;;;;;11.10;99.90;;;;;;7406476;19;20014;-78
2024/01/05 11:24:49;;;;;;;7.50;1.60;;;11.10;99.90;;;;;;7389835;19;19982;-78
2024/01/05 11:27:32;;;;;;;7.07;1.25;;;10.90;99.90;;;;;;7387404;19;20006;-77
2024/01/05 11:30:02;;;;;;;3.80;1.27;;;11.20;99.90;;;;;;7404724;19;20034;-78
2024/01/05 11:32:39;;;;;;;11.98;1.48;;;11.00;99.90;;;;;;7381391;19;20245;-76
2024/01/05 11:35:46;;;;;;;4.78;1.23;;;11.10;99.90;;;;;;7388364;19;20004;-77
2024/01/05 11:38:29;;;;;;;4.47;1.20;;;11.20;99.90;;;;;;7385497;19;20021;-77
2024/01/05 11:41:00;;;;;;;9.25;1.65;;;11.30;99.90;;;;;;7381738;19;20028;-77
2024/01/05 11:43:37;;;;;;;;;;;11.20;99.90;;;;;;7385344;19;20009;-78
2024/01/05 11:46:06;;;;;;;9.15;1.92;;;11.00;99.90;;;;;;7385178;19;20210;-77
2024/01/05 11:48:51;;;;;;;5.60;1.45;;;11.20;99.90;;;;;;7385062;19;20006;-78
2024/01/05 11:51:21;;;;;;;4.53;1.30;;;11.30;99.90;;;;;;7382966;19;20365;-79
2024/01/05 11:53:50;;;;;;;13.05;1.55;;;11.30;99.90;;;;;;7404897;19;20035;-81
2024/01/05 11:56:25;;;;;;;8.50;1.40;;;11.40;99.90;;;;;;7383587;19;20003;-77
2024/01/05 11:58:53;;;;;;;20.33;2.00;;;11.50;99.90;;;;;;7382026;19;20002;-78
2024/01/05 12:01:25;;;;;;;4.40;1.40;;;11.70;99.90;;;;;;7382088;19;20010;-77
2024/01/05 12:03:56;;;;;;;7.03;1.42;;;11.80;99.90;;;;;;7384703;19;20034;-80
2024/01/05 12:06:25;;;;;;;7.13;1.55;;;11.80;99.90;;;;;;7384820;19;20027;-80
2024/01/05 12:08:54;;;;;;;11.27;1.75;;;11.50;99.90;;;;;;7407973;19;20015;-78
2024/01/05 12:11:29;;;;;;;7.97;1.30;;;11.40;99.90;;;;;;7384338;19;20006;-80
2024/01/05 12:13:59;;;;;;;9.65;1.58;;;11.40;99.90;;;;;;7386081;19;20011;-80
2024/01/05 12:16:28;;;;;;;3.20;0.90;;;11.40;99.90;;;;;;7383374;19;20023;-81
2024/01/05 12:18:57;;;;;;;3.15;1.00;;;11.50;99.90;;;;;;7384567;19;20070;-80
2024/01/05 12:21:26;;;;;;;4.90;1.60;;;11.60;99.90;;;;;;7383939;19;19999;-80
2024/01/05 12:24:01;;;;;;;6.22;0.98;;;11.80;99.90;;;;;;7406501;19;20015;-81
2024/01/05 12:26:33;;;;;;;6.80;1.50;;;11.90;99.90;;;;;;7383896;19;20027;-81
2024/01/05 12:29:07;;;;;;;5.22;1.30;;;11.70;99.90;;;;;;7385632;19;20417;-79
2024/01/05 12:31:40;;;;;;;7.70;1.40;;;11.90;99.90;;;;;;7387619;19;19998;-80
2024/01/05 12:34:13;;;;;;;11.30;1.83;;;11.70;99.90;;;;;;7385997;19;20024;-80
2024/01/05 12:36:44;;;;;;;16.88;1.40;;;11.50;99.90;;;;;;7386361;19;20353;-79
2024/01/05 12:39:10;;;;;;;7.10;1.73;;;11.50;99.90;;;;;;7407796;19;20028;-80
2024/01/05 12:41:46;;;;;;;10.00;1.40;;;11.70;99.90;;;;;;7387770;19;20356;-80
2024/01/05 12:44:18;;;;;;;10.57;1.83;;;11.80;99.90;;;;;;7384229;19;20443;-80
2024/01/05 12:46:49;;;;;;;5.90;1.45;;;11.80;99.90;;;;;;7388035;19;20018;-80
2024/01/05 12:49:39;;;;;;;7.97;2.00;;;11.90;99.90;;;;;;7389087;19;20016;-79
2024/01/05 12:52:09;;;;;;;11.32;1.45;;;12.00;99.90;;;;;;7388378;19;19999;-80
2024/01/05 12:54:48;;;;;;;4.55;1.40;;;11.90;99.90;;;;;;7387528;19;19999;-80
2024/01/05 12:57:23;;;;;;;9.10;1.63;;;11.80;99.90;;;;;;7401698;19;20010;-79
2024/01/05 12:59:56;;;;;;;11.68;1.60;;;11.80;99.90;;;;;;7409871;19;20011;-81
2024/01/05 13:02:25;;;;;;;12.00;1.38;;;12.00;99.90;;;;;;7388434;19;20003;-79
2024/01/05 13:05:00;;;;;;;10.93;2.17;;;12.00;99.90;;;;;;7390489;19;20029;-81
2024/01/05 13:07:32;;;;;;;7.22;1.42;;;11.90;99.90;;;;;;7388225;19;20357;-79